Time;durP1;ratioP1;P1;durP2;ratioP2;P2;SDS_P1;SDS_P2;PMS_P1;PMS_P2;Temp;Humidity;BMP_temperature;BMP_pressure;BME280_temperature;BME280_humidity;BME280_pressure;Samples;Min_cycle;Max_cycle;Signal;HPM_P1;HPM_P2
2022/07/12 00:01:59;;;;;;;161.48;146.27;;;16.90;94.20;;;;;;4993654;28;20511;-74
2022/07/12 00:04:26;;;;;;;160.68;145.63;;;16.80;94.20;;;;;;4993781;28;20055;-75
2022/07/12 00:06:54;;;;;;;160.68;145.55;;;16.80;94.30;;;;;;5024648;28;20523;-74
2022/07/12 00:09:21;;;;;;;158.13;143.32;;;16.70;94.30;;;;;;4992119;28;20057;-74
2022/07/12 00:11:48;;;;;;;156.65;142.15;;;16.70;94.30;;;;;;4992844;28;20055;-74
2022/07/12 00:14:15;;;;;;;153.70;139.60;;;16.60;94.20;;;;;;4993424;28;20065;-75
2022/07/12 00:16:42;;;;;;;155.05;140.75;;;16.60;94.10;;;;;;4994413;28;20047;-75
2022/07/12 00:19:09;;;;;;;179.10;161.95;;;16.50;94.20;;;;;;4994879;28;20051;-75
2022/07/12 00:21:36;;;;;;;158.02;143.48;;;16.50;94.30;;;;;;4995969;28;20059;-74
2022/07/12 00:24:05;;;;;;;157.27;142.70;;;16.40;94.30;;;;;;5014523;28;20078;-74
2022/07/12 00:26:32;;;;;;;153.27;138.80;;;16.40;94.40;;;;;;5031248;28;20050;-74
2022/07/12 00:29:03;;;;;;;153.43;138.88;;;16.40;94.40;;;;;;5017438;28;20141;-74
2022/07/12 00:31:30;;;;;;;168.15;151.85;;;16.40;94.40;;;;;;5017162;28;20061;-74
2022/07/12 00:33:57;;;;;;;165.90;150.10;;;16.30;94.50;;;;;;5031443;28;20052;-74
2022/07/12 00:36:24;;;;;;;160.30;144.90;;;16.30;94.50;;;;;;5015040;28;20768;-74
2022/07/12 00:38:51;;;;;;;163.88;147.63;;;16.30;94.50;;;;;;5015818;28;20145;-74
2022/07/12 00:41:20;;;;;;;159.90;144.60;;;16.30;94.60;;;;;;5047743;28;20059;-75
2022/07/12 00:43:47;;;;;;;156.93;141.90;;;16.30;94.70;;;;;;5016185;28;20057;-74
2022/07/12 00:46:15;;;;;;;157.73;142.63;;;16.20;94.80;;;;;;5047398;28;20162;-74
2022/07/12 00:48:42;;;;;;;157.00;141.60;;;16.20;94.90;;;;;;5014408;28;20573;-75
2022/07/12 00:51:10;;;;;;;157.25;142.15;;;16.10;94.80;;;;;;5015995;28;20058;-74
2022/07/12 00:53:37;;;;;;;160.70;145.05;;;16.10;94.90;;;;;;5014791;28;20137;-75
2022/07/12 00:56:05;;;;;;;155.40;140.40;;;16.10;94.90;;;;;;5012856;28;20125;-74
2022/07/12 00:58:33;;;;;;;152.15;136.93;;;16.10;95.00;;;;;;5015364;28;20129;-75
2022/07/12 01:01:00;;;;;;;152.27;137.30;;;16.00;95.00;;;;;;5014530;28;20121;-75
2022/07/12 01:03:27;;;;;;;148.27;134.27;;;16.00;95.00;;;;;;5014240;28;20141;-74
2022/07/12 01:05:55;;;;;;;148.43;134.43;;;16.00;95.10;;;;;;5015702;28;20106;-74
2022/07/12 01:08:22;;;;;;;147.43;133.52;;;15.90;95.00;;;;;;5013569;28;20491;-74
2022/07/12 01:10:49;;;;;;;146.07;132.30;;;15.90;95.10;;;;;;5015322;28;20061;-74
2022/07/12 01:13:17;;;;;;;149.90;135.80;;;15.90;95.00;;;;;;5047382;28;20047;-74
2022/07/12 01:15:47;;;;;;;149.02;134.82;;;15.90;95.00;;;;;;5013736;28;20047;-74
2022/07/12 01:18:15;;;;;;;149.73;135.38;;;15.90;94.90;;;;;;5015262;28;20157;-74
2022/07/12 01:20:44;;;;;;;144.73;130.73;;;15.80;94.80;;;;;;5014217;28;20050;-74
2022/07/12 01:23:13;;;;;;;146.85;132.77;;;15.80;94.80;;;;;;5015260;28;20085;-74
2022/07/12 01:25:40;;;;;;;146.90;132.45;;;15.80;94.80;;;;;;5013965;28;20054;-74
2022/07/12 01:28:07;;;;;;;149.30;135.15;;;15.80;94.90;;;;;;5012135;28;20501;-74
2022/07/12 01:30:34;;;;;;;152.00;137.30;;;15.70;95.00;;;;;;5015036;28;20074;-74
2022/07/12 01:33:02;;;;;;;145.93;131.93;;;15.60;95.10;;;;;;5046957;28;20060;-74
2022/07/12 01:35:29;;;;;;;151.68;136.98;;;15.60;95.10;;;;;;5014667;28;20057;-74
2022/07/12 01:37:57;;;;;;;146.98;132.77;;;15.50;95.20;;;;;;5013603;28;20054;-74
2022/07/12 01:40:25;;;;;;;145.52;131.40;;;15.50;95.20;;;;;;5014021;28;20061;-74
2022/07/12 01:42:53;;;;;;;150.35;135.60;;;15.40;95.20;;;;;;5047019;28;20141;-74
2022/07/12 01:45:20;;;;;;;146.40;132.25;;;15.40;95.30;;;;;;5013399;28;20554;-74
2022/07/12 01:47:47;;;;;;;144.15;130.15;;;15.30;95.40;;;;;;5014387;28;20554;-74
2022/07/12 01:50:13;;;;;;;141.98;128.25;;;15.30;95.60;;;;;;5015054;28;20060;-74
2022/07/12 01:52:41;;;;;;;145.63;131.63;;;15.30;95.40;;;;;;5013615;28;20820;-75
2022/07/12 01:55:10;;;;;;;144.38;130.45;;;15.30;95.40;;;;;;5014542;28;20057;-74
2022/07/12 01:57:39;;;;;;;143.20;129.50;;;15.30;95.30;;;;;;5013089;28;20998;-74
2022/07/12 02:00:07;;;;;;;142.93;129.02;;;15.30;95.30;;;;;;5013336;28;20149;-74
2022/07/12 02:02:35;;;;;;;141.38;127.53;;;15.30;95.30;;;;;;5003001;28;20051;-74
2022/07/12 02:05:02;;;;;;;141.05;127.32;;;15.20;95.30;;;;;;4993727;28;20106;-74
2022/07/12 02:07:30;;;;;;;144.15;130.05;;;15.20;95.40;;;;;;4994519;28;20117;-74
2022/07/12 02:09:57;;;;;;;139.93;126.22;;;15.10;95.50;;;;;;4995128;28;20069;-74
2022/07/12 02:12:25;;;;;;;142.65;128.40;;;15.10;95.50;;;;;;4993549;28;20066;-74
2022/07/12 02:14:53;;;;;;;139.25;125.85;;;15.10;95.50;;;;;;4993956;28;20105;-74
2022/07/12 02:17:20;;;;;;;139.57;126.07;;;15.00;95.60;;;;;;5009948;28;20129;-74
2022/07/12 02:19:48;;;;;;;138.25;125.05;;;15.00;95.70;;;;;;4994840;28;20532;-74
2022/07/12 02:22:15;;;;;;;144.18;129.98;;;14.90;95.70;;;;;;4977208;28;20062;-75
2022/07/12 02:24:42;;;;;;;139.02;125.63;;;14.90;95.70;;;;;;4994956;28;20063;-74
2022/07/12 02:27:09;;;;;;;140.73;127.03;;;14.90;95.80;;;;;;4977170;28;20888;-75
2022/07/12 02:29:36;;;;;;;141.05;127.25;;;14.80;95.80;;;;;;5026827;28;20055;-74
2022/07/12 02:32:05;;;;;;;140.70;127.05;;;14.80;95.90;;;;;;4993624;28;20058;-74
2022/07/12 02:34:32;;;;;;;145.52;131.57;;;14.70;96.00;;;;;;4994367;28;20049;-74
2022/07/12 02:36:58;;;;;;;141.30;127.60;;;14.70;96.10;;;;;;5029149;28;20583;-74
2022/07/12 02:39:26;;;;;;;137.23;123.72;;;14.60;96.20;;;;;;5013333;28;20141;-74
2022/07/12 02:41:53;;;;;;;142.15;128.15;;;14.60;96.20;;;;;;5012631;28;20134;-74
2022/07/12 02:44:20;;;;;;;138.00;124.50;;;14.60;96.30;;;;;;5012841;28;20054;-74
2022/07/12 02:46:46;;;;;;;139.80;126.20;;;14.60;96.30;;;;;;5013819;28;20056;-74
2022/07/12 02:49:15;;;;;;;138.55;125.13;;;14.60;96.30;;;;;;5045152;28;20050;-74
2022/07/12 02:51:42;;;;;;;137.38;123.97;;;14.60;96.30;;;;;;5012360;28;20050;-74
2022/07/12 02:54:08;;;;;;;138.25;124.45;;;14.60;96.30;;;;;;5012936;28;20054;-74
2022/07/12 02:56:35;;;;;;;138.43;124.90;;;14.60;96.20;;;;;;5012553;28;20050;-74
2022/07/12 02:59:02;;;;;;;138.95;124.97;;;14.60;96.20;;;;;;5013695;28;20058;-74
2022/07/12 03:01:29;;;;;;;138.02;124.25;;;14.60;96.10;;;;;;5013691;28;20093;-74
2022/07/12 03:03:57;;;;;;;142.45;127.95;;;14.60;96.10;;;;;;5013403;28;20878;-74
2022/07/12 03:06:25;;;;;;;137.98;124.18;;;14.60;96.10;;;;;;5028810;28;20862;-74
2022/07/12 03:08:52;;;;;;;142.75;128.35;;;14.60;96.20;;;;;;5033230;28;20058;-75
2022/07/12 03:11:18;;;;;;;139.80;125.80;;;14.60;96.20;;;;;;4993058;28;20054;-74
2022/07/12 03:13:45;;;;;;;146.23;131.23;;;14.60;96.20;;;;;;4976212;28;20075;-74
2022/07/12 03:16:13;;;;;;;140.95;126.55;;;14.60;96.20;;;;;;4992964;28;20057;-74
2022/07/12 03:18:40;;;;;;;143.43;128.63;;;14.50;96.10;;;;;;4993456;28;20496;-74
2022/07/12 03:21:07;;;;;;;145.48;130.45;;;14.50;96.10;;;;;;4993970;28;20058;-74
2022/07/12 03:23:36;;;;;;;143.27;128.18;;;14.50;96.10;;;;;;4976101;28;20055;-75
2022/07/12 03:26:03;;;;;;;138.90;124.38;;;14.50;96.00;;;;;;5025196;28;20150;-74
2022/07/12 03:28:30;;;;;;;139.02;124.43;;;14.50;96.00;;;;;;4993323;28;20050;-74
2022/07/12 03:30:57;;;;;;;140.95;126.38;;;14.50;96.00;;;;;;4993544;28;20050;-74
2022/07/12 03:33:24;;;;;;;137.43;122.75;;;14.50;96.10;;;;;;4992292;28;20575;-74
2022/07/12 03:35:51;;;;;;;139.10;124.75;;;14.50;95.90;;;;;;4992021;28;20043;-74
2022/07/12 03:38:18;;;;;;;138.57;124.40;;;14.50;96.00;;;;;;4992008;28;20051;-74
2022/07/12 03:40:46;;;;;;;140.80;126.40;;;14.40;95.90;;;;;;4992768;28;20055;-74
2022/07/12 03:43:13;;;;;;;135.27;121.35;;;14.40;96.00;;;;;;4975853;28;20055;-74
2022/07/12 03:45:42;;;;;;;135.38;121.68;;;14.40;96.00;;;;;;4993045;28;20070;-74
2022/07/12 03:48:08;;;;;;;136.57;122.80;;;14.30;96.10;;;;;;5024783;28;20134;-74
2022/07/12 03:50:35;;;;;;;135.98;122.13;;;14.30;96.20;;;;;;4994575;28;20057;-74
2022/07/12 03:53:02;;;;;;;137.85;123.72;;;14.30;96.20;;;;;;4997161;28;20057;-74
2022/07/12 03:55:29;;;;;;;142.90;127.80;;;14.30;96.20;;;;;;4996886;28;20058;-74
2022/07/12 03:57:58;;;;;;;148.35;132.05;;;14.30;96.20;;;;;;4996782;28;20566;-74
2022/07/12 04:00:25;;;;;;;142.30;127.32;;;14.20;96.30;;;;;;4979396;28;20134;-74
2022/07/12 04:02:54;;;;;;;185.88;157.20;;;14.20;96.40;;;;;;4995475;28;20083;-74
2022/07/12 04:05:25;;;;;;;236.90;203.93;;;14.20;96.40;;;;;;4996764;28;20055;-74
2022/07/12 04:07:53;;;;;;;221.05;185.55;;;14.20;96.50;;;;;;4996547;28;20093;-74
2022/07/12 04:10:20;;;;;;;157.68;136.30;;;14.20;96.40;;;;;;4995365;28;20563;-74
2022/07/12 04:12:47;;;;;;;148.98;132.77;;;14.10;96.40;;;;;;4995436;28;20414;-74
2022/07/12 04:15:15;;;;;;;151.55;135.00;;;14.10;96.50;;;;;;5007759;28;20058;-74
2022/07/12 04:17:42;;;;;;;146.32;130.48;;;14.10;96.50;;;;;;5031709;28;20448;-74
2022/07/12 04:20:10;;;;;;;142.05;126.85;;;14.10;96.60;;;;;;5014595;28;20054;-74
2022/07/12 04:22:37;;;;;;;142.15;127.22;;;14.10;96.70;;;;;;5014997;28;20062;-74
2022/07/12 04:25:05;;;;;;;143.45;128.15;;;14.10;96.70;;;;;;5016004;28;20523;-74
2022/07/12 04:27:33;;;;;;;146.25;130.40;;;14.10;96.70;;;;;;5031259;28;20049;-74
2022/07/12 04:30:00;;;;;;;162.63;139.45;;;14.10;96.80;;;;;;5014755;28;20054;-74
2022/07/12 04:32:28;;;;;;;225.13;184.30;;;14.10;96.80;;;;;;5016096;28;20054;-74
2022/07/12 04:34:55;;;;;;;208.82;177.23;;;14.10;96.80;;;;;;5014749;28;20106;-74
2022/07/12 04:37:22;;;;;;;202.93;171.45;;;14.10;96.70;;;;;;5014931;28;20046;-74
2022/07/12 04:39:49;;;;;;;176.48;144.25;;;14.10;96.70;;;;;;5031365;28;20133;-74
2022/07/12 04:42:16;;;;;;;165.35;144.98;;;14.10;96.60;;;;;;5015045;28;20053;-74
2022/07/12 04:44:43;;;;;;;159.68;140.50;;;14.10;96.50;;;;;;5014674;28;20056;-74
2022/07/12 04:47:10;;;;;;;171.98;152.98;;;14.10;96.50;;;;;;5012434;28;20054;-74
2022/07/12 04:49:38;;;;;;;174.95;151.82;;;14.10;96.50;;;;;;4994981;28;20055;-74
2022/07/12 04:52:06;;;;;;;178.40;152.73;;;14.10;96.70;;;;;;4995217;28;20133;-74
2022/07/12 04:54:33;;;;;;;161.07;142.38;;;14.20;96.60;;;;;;4995152;28;20501;-74
2022/07/12 04:57:00;;;;;;;158.48;141.18;;;14.20;96.80;;;;;;4995070;28;20057;-74
2022/07/12 04:59:26;;;;;;;173.07;150.77;;;14.10;96.80;;;;;;4994716;28;20065;-74
2022/07/12 05:01:53;;;;;;;194.95;168.70;;;14.10;96.90;;;;;;5000989;28;20042;-74
2022/07/12 05:04:20;;;;;;;173.60;152.40;;;14.10;97.10;;;;;;5015047;28;20160;-74
2022/07/12 05:06:49;;;;;;;172.05;150.35;;;14.10;97.00;;;;;;5014276;28;20053;-74
2022/07/12 05:09:16;;;;;;;198.13;170.05;;;14.10;97.10;;;;;;5030412;28;20521;-74
2022/07/12 05:11:42;;;;;;;188.57;163.82;;;14.10;97.20;;;;;;5014473;28;20525;-74
2022/07/12 05:14:10;;;;;;;172.73;149.45;;;14.20;97.30;;;;;;4997841;28;20946;-74
2022/07/12 05:16:36;;;;;;;174.60;148.77;;;14.20;97.40;;;;;;5015480;28;20054;-74
2022/07/12 05:19:03;;;;;;;168.70;145.20;;;14.20;97.40;;;;;;5030367;28;20142;-74
2022/07/12 05:21:30;;;;;;;170.10;148.65;;;14.20;97.50;;;;;;5009568;28;20082;-74
2022/07/12 05:23:58;;;;;;;164.75;143.68;;;14.30;97.60;;;;;;5023411;28;20064;-73
2022/07/12 05:26:25;;;;;;;180.70;159.07;;;14.30;97.70;;;;;;5016320;28;20049;-74
2022/07/12 05:28:52;;;;;;;183.63;156.50;;;14.30;97.80;;;;;;5033229;28;20170;-74
2022/07/12 05:31:19;;;;;;;186.00;160.43;;;14.30;97.80;;;;;;5033740;28;20101;-74
2022/07/12 05:33:46;;;;;;;188.35;161.65;;;14.30;98.00;;;;;;5050440;28;20065;-74
2022/07/12 05:36:13;;;;;;;185.18;161.90;;;14.40;98.20;;;;;;5035002;28;20046;-74
2022/07/12 05:38:40;;;;;;;178.00;155.05;;;14.40;98.30;;;;;;5049790;28;20060;-74
2022/07/12 05:41:08;;;;;;;187.57;165.43;;;14.40;98.90;;;;;;5034453;28;20137;-74
2022/07/12 05:43:35;;;;;;;183.45;160.43;;;14.50;99.20;;;;;;5008556;28;20046;-74
2022/07/12 05:46:02;;;;;;;193.35;169.73;;;14.60;99.10;;;;;;5025141;28;20054;-74
2022/07/12 05:48:30;;;;;;;188.43;167.88;;;14.60;99.30;;;;;;5023669;28;20131;-74
2022/07/12 05:53:21;;;;;;;185.27;165.10;;;14.70;99.40;;;;;;5016465;28;20171;-73
2022/07/12 05:53:43;;;;;;;194.10;169.52;;;14.80;99.60;;;;;;5016025;28;20054;-74
2022/07/12 05:56:12;;;;;;;205.68;179.20;;;14.80;99.70;;;;;;5032224;28;20050;-74
2022/07/12 05:58:38;;;;;;;199.38;177.20;;;15.00;99.90;;;;;;4995796;28;20063;-74
2022/07/12 06:01:06;;;;;;;206.30;181.60;;;15.00;99.90;;;;;;5044509;28;20132;-74
2022/07/12 06:03:33;;;;;;;206.80;182.25;;;15.10;99.90;;;;;;5016326;28;20054;-74
2022/07/12 06:06:00;;;;;;;206.45;183.45;;;15.20;99.90;;;;;;5031368;28;20054;-74
2022/07/12 06:08:27;;;;;;;204.52;180.25;;;15.30;99.90;;;;;;5012478;28;20050;-74
2022/07/12 06:10:55;;;;;;;196.60;169.23;;;15.30;99.90;;;;;;5014769;28;20055;-75
2022/07/12 06:16:39;;;;;;;199.23;177.40;;;15.50;99.90;;;;;;4991532;28;20058;-75
2022/07/12 06:19:06;;;;;;;202.25;180.55;;;15.60;99.90;;;;;;4993009;28;20515;-75
2022/07/12 06:21:33;;;;;;;195.20;174.60;;;15.70;99.90;;;;;;4992720;28;20130;-75
2022/07/12 06:24:00;;;;;;;199.23;178.15;;;15.70;99.90;;;;;;5006234;28;20818;-74
2022/07/12 06:26:28;;;;;;;193.38;172.80;;;15.80;99.90;;;;;;4994136;28;20110;-75
2022/07/12 06:28:55;;;;;;;185.30;165.38;;;15.90;99.90;;;;;;4992465;28;20062;-75
2022/07/12 06:31:23;;;;;;;187.68;167.95;;;15.90;99.90;;;;;;4991812;28;20065;-76
2022/07/12 06:33:51;;;;;;;181.93;162.45;;;16.00;99.90;;;;;;4989090;28;20055;-76
2022/07/12 06:36:18;;;;;;;191.95;171.13;;;16.00;99.90;;;;;;4992275;28;20138;-75
2022/07/12 06:38:45;;;;;;;180.13;161.15;;;16.10;99.90;;;;;;4993737;28;20047;-75
2022/07/12 06:41:12;;;;;;;183.07;163.50;;;16.20;99.90;;;;;;4995482;28;20066;-75
2022/07/12 06:43:39;;;;;;;181.85;162.88;;;16.20;99.90;;;;;;5002694;28;20050;-76
2022/07/12 06:46:06;;;;;;;186.70;167.20;;;16.30;99.90;;;;;;4992394;28;20046;-74
2022/07/12 06:48:33;;;;;;;188.65;168.95;;;16.40;99.90;;;;;;4993416;28;20817;-75
2022/07/12 06:51:01;;;;;;;196.05;175.65;;;16.40;99.90;;;;;;4993246;28;20059;-75
2022/07/12 06:53:28;;;;;;;181.63;162.43;;;16.50;99.90;;;;;;4992928;28;20051;-75
2022/07/12 06:55:57;;;;;;;191.60;171.80;;;16.50;99.90;;;;;;4993808;28;20047;-74
2022/07/12 06:58:24;;;;;;;188.50;168.82;;;16.60;99.90;;;;;;5016876;28;20051;-73
2022/07/12 07:00:50;;;;;;;182.68;164.18;;;16.70;99.90;;;;;;5003407;28;20745;-75
2022/07/12 07:03:17;;;;;;;194.68;174.57;;;16.70;99.90;;;;;;4991022;28;20063;-75
2022/07/12 07:05:44;;;;;;;196.68;176.65;;;16.70;99.90;;;;;;4998054;28;20050;-75
2022/07/12 07:08:12;;;;;;;195.20;175.35;;;16.80;99.90;;;;;;4991851;28;20141;-74
2022/07/12 07:10:39;;;;;;;197.90;178.00;;;16.90;99.90;;;;;;4990060;28;20527;-74
2022/07/12 07:13:10;;;;;;;193.90;174.63;;;16.90;99.90;;;;;;4988069;28;20046;-74
2022/07/12 07:15:40;;;;;;;195.85;176.27;;;17.00;99.90;;;;;;4992629;28;20058;-74
2022/07/12 07:18:07;;;;;;;196.15;176.70;;;17.00;99.90;;;;;;4991246;28;20055;-73
2022/07/12 07:20:34;;;;;;;193.20;174.10;;;17.10;99.90;;;;;;4989695;28;20094;-74
2022/07/12 07:23:01;;;;;;;196.23;176.75;;;17.10;99.90;;;;;;4990146;28;20539;-74
2022/07/12 07:25:30;;;;;;;193.65;174.75;;;17.20;99.90;;;;;;5006378;28;20065;-74
2022/07/12 07:27:56;;;;;;;198.98;179.57;;;17.30;99.90;;;;;;5021377;28;20055;-74
2022/07/12 07:33:08;;;;;;;195.98;176.68;;;17.40;99.90;;;;;;4990456;28;20047;-74
2022/07/12 07:35:35;;;;;;;183.82;166.07;;;17.50;99.90;;;;;;4991525;28;20150;-75
2022/07/12 07:38:02;;;;;;;192.95;174.13;;;17.60;99.90;;;;;;4991461;28;20054;-74
2022/07/12 07:40:30;;;;;;;183.18;165.27;;;17.70;99.90;;;;;;4994157;28;20055;-74
2022/07/12 07:42:57;;;;;;;183.80;165.70;;;17.80;99.90;;;;;;4992820;28;20055;-75
2022/07/12 07:45:24;;;;;;;193.68;175.10;;;17.90;99.90;;;;;;5007718;28;20477;-75
2022/07/12 07:47:51;;;;;;;181.05;163.73;;;17.90;99.90;;;;;;5007224;28;20527;-77
2022/07/12 07:50:18;;;;;;;188.93;170.95;;;18.00;99.90;;;;;;4991722;28;20051;-75
2022/07/12 07:52:45;;;;;;;188.07;168.73;;;18.10;99.90;;;;;;5006190;28;20054;-76
2022/07/12 07:55:12;;;;;;;191.32;173.27;;;18.20;99.90;;;;;;5007589;28;20572;-75
2022/07/12 07:57:40;;;;;;;194.93;176.20;;;18.20;99.90;;;;;;4990982;28;20059;-76
2022/07/12 08:00:08;;;;;;;183.55;166.45;;;18.30;99.90;;;;;;4992710;28;20517;-76
2022/07/12 08:02:42;;;;;;;194.13;176.32;;;18.40;99.90;;;;;;5005846;28;20062;-76
2022/07/12 08:05:09;;;;;;;201.20;182.73;;;18.50;99.90;;;;;;5006330;28;20531;-76
2022/07/12 08:07:36;;;;;;;198.93;180.93;;;18.60;99.90;;;;;;5006499;28;20141;-74
2022/07/12 08:10:03;;;;;;;209.07;190.18;;;18.60;99.90;;;;;;4990437;28;20059;-73
2022/07/12 08:12:30;;;;;;;210.00;190.90;;;18.70;99.90;;;;;;4993711;28;20058;-73
2022/07/12 08:14:58;;;;;;;214.57;195.10;;;18.80;99.90;;;;;;4992906;28;20051;-74
2022/07/12 08:17:25;;;;;;;213.10;193.82;;;18.90;99.90;;;;;;4992647;28;20063;-73
2022/07/12 08:19:52;;;;;;;212.77;193.40;;;19.00;99.90;;;;;;5011539;28;20588;-74
2022/07/12 08:22:19;;;;;;;216.35;196.95;;;19.00;99.90;;;;;;4996800;28;20659;-74
2022/07/12 08:24:45;;;;;;;199.77;181.48;;;19.10;99.90;;;;;;4991385;28;20055;-74
2022/07/12 08:27:12;;;;;;;219.82;200.30;;;19.20;99.90;;;;;;4992314;28;20055;-75
2022/07/12 08:29:39;;;;;;;204.07;185.90;;;19.20;99.90;;;;;;4992106;28;20158;-74
2022/07/12 08:32:08;;;;;;;220.25;200.48;;;19.30;99.90;;;;;;5007087;28;20057;-73
2022/07/12 08:34:35;;;;;;;213.35;194.32;;;19.40;99.90;;;;;;4992418;28;20054;-73
2022/07/12 08:37:03;;;;;;;212.80;193.90;;;19.40;99.80;;;;;;5007772;28;20047;-74
2022/07/12 08:39:30;;;;;;;216.68;197.82;;;19.50;99.60;;;;;;5010557;28;20046;-74
2022/07/12 08:41:56;;;;;;;213.50;194.98;;;19.60;99.50;;;;;;5010951;28;20138;-74
2022/07/12 08:44:23;;;;;;;207.23;189.32;;;19.60;99.40;;;;;;5010675;28;20058;-74
2022/07/12 08:46:52;;;;;;;205.55;187.13;;;19.70;99.30;;;;;;4997198;28;20184;-73
2022/07/12 08:49:20;;;;;;;219.63;200.80;;;19.80;99.40;;;;;;5010446;28;20062;-73
2022/07/12 08:51:48;;;;;;;223.10;204.50;;;19.80;99.30;;;;;;4994055;28;20177;-74
2022/07/12 08:54:16;;;;;;;214.85;196.27;;;19.80;99.20;;;;;;4996076;28;20101;-74
2022/07/12 08:56:45;;;;;;;214.55;196.07;;;19.90;99.10;;;;;;4994779;28;20047;-73
2022/07/12 08:59:14;;;;;;;207.23;189.32;;;20.00;99.00;;;;;;4995487;28;20144;-74
2022/07/12 09:01:47;;;;;;;213.25;194.93;;;20.00;98.90;;;;;;4994316;28;20133;-74
2022/07/12 09:04:15;;;;;;;204.20;186.65;;;20.00;98.60;;;;;;4996487;28;20054;-74
2022/07/12 09:06:43;;;;;;;206.95;189.07;;;20.10;98.60;;;;;;4994218;28;20043;-74
2022/07/12 09:09:10;;;;;;;207.15;188.90;;;20.20;98.40;;;;;;4994220;28;20053;-75
2022/07/12 09:11:38;;;;;;;203.80;186.05;;;20.20;98.40;;;;;;4994388;28;20134;-75
2022/07/12 09:14:07;;;;;;;214.52;196.60;;;20.30;98.10;;;;;;4993675;28;20050;-75
2022/07/12 09:16:33;;;;;;;211.93;194.00;;;20.40;97.80;;;;;;4993883;28;20051;-75
2022/07/12 09:19:16;;;;;;;207.52;190.15;;;20.50;97.90;;;;;;4997887;28;21883;-75
2022/07/12 09:21:50;;;;;;;215.60;197.32;;;20.60;97.80;;;;;;5005482;28;20058;-75
2022/07/12 09:24:17;;;;;;;209.75;192.30;;;20.60;97.90;;;;;;5002817;28;20085;-74
2022/07/12 09:26:45;;;;;;;220.02;201.85;;;20.60;97.90;;;;;;5020960;28;20050;-74
2022/07/12 09:29:13;;;;;;;208.20;190.85;;;20.70;97.90;;;;;;4999383;28;20051;-74
2022/07/12 09:37:15;;;;;;;211.18;193.80;;;21.00;97.50;;;;;;4998282;28;20046;-74
2022/07/12 09:39:43;;;;;;;218.38;200.38;;;21.00;97.20;;;;;;4993853;28;20077;-74
2022/07/12 09:42:11;;;;;;;208.13;191.18;;;21.00;97.20;;;;;;4993097;28;20061;-74
2022/07/12 09:44:38;;;;;;;215.45;197.65;;;21.10;97.30;;;;;;4995204;28;20051;-74
2022/07/12 09:47:07;;;;;;;218.10;200.18;;;21.10;97.20;;;;;;5010363;28;20502;-74
2022/07/12 09:49:36;;;;;;;216.57;198.80;;;21.20;97.40;;;;;;5009730;28;20126;-74
2022/07/12 09:52:05;;;;;;;212.55;194.98;;;21.20;97.00;;;;;;4993177;28;20055;-74
2022/07/12 09:54:40;;;;;;;216.00;198.25;;;21.30;96.50;;;;;;4992799;28;20134;-74
2022/07/12 09:57:17;;;;;;;223.60;205.40;;;21.40;96.40;;;;;;4994798;28;20050;-74
2022/07/12 09:59:45;;;;;;;219.25;200.68;;;21.40;96.40;;;;;;4994547;28;20055;-74
2022/07/12 10:02:15;;;;;;;211.98;194.20;;;21.50;96.50;;;;;;4993372;28;20051;-74
2022/07/12 10:04:43;;;;;;;220.52;203.02;;;21.50;96.60;;;;;;5002496;28;20128;-73
2022/07/12 10:07:13;;;;;;;213.93;196.63;;;21.60;96.50;;;;;;5000344;28;20129;-73
2022/07/12 10:09:42;;;;;;;211.18;193.52;;;21.70;96.30;;;;;;4993059;28;20062;-74
2022/07/12 10:12:34;;;;;;;215.10;198.07;;;21.80;96.10;;;;;;4995671;28;20134;-74
2022/07/12 10:15:04;;;;;;;213.25;196.32;;;21.90;96.00;;;;;;5025945;28;20081;-74
2022/07/12 10:17:33;;;;;;;215.27;195.52;;;22.00;95.70;;;;;;5017037;28;20481;-74
2022/07/12 10:20:16;;;;;;;209.48;192.45;;;22.10;95.60;;;;;;4992345;28;20126;-74
2022/07/12 10:22:43;;;;;;;213.55;196.48;;;22.20;96.00;;;;;;5000114;28;20146;-74
2022/07/12 10:25:33;;;;;;;214.10;197.23;;;22.30;95.30;;;;;;5029317;28;20443;-74
2022/07/12 10:28:00;;;;;;;220.70;203.43;;;22.30;95.30;;;;;;5011977;28;20061;-74
2022/07/12 10:30:28;;;;;;;217.25;200.13;;;22.40;95.20;;;;;;5013297;28;20046;-74
2022/07/12 10:32:58;;;;;;;204.65;187.90;;;22.40;95.10;;;;;;5018597;28;20047;-74
2022/07/12 10:35:27;;;;;;;208.02;191.73;;;22.50;95.00;;;;;;4995890;28;20130;-74
2022/07/12 10:38:16;;;;;;;207.73;191.10;;;22.50;94.70;;;;;;4992371;28;20051;-74
2022/07/12 10:40:47;;;;;;;203.70;187.57;;;22.60;94.70;;;;;;5009985;28;20051;-74
2022/07/12 10:44:04;;;;;;;206.70;190.65;;;22.60;94.60;;;;;;5017625;28;20115;-74
2022/07/12 10:46:20;;;;;;;210.65;194.43;;;22.70;94.60;;;;;;5006659;28;20080;-74
2022/07/12 10:48:47;;;;;;;211.68;195.25;;;22.70;94.80;;;;;;4993825;28;20076;-74
2022/07/12 10:51:16;;;;;;;207.90;191.90;;;22.80;94.50;;;;;;4993874;28;20508;-74
2022/07/12 10:53:45;;;;;;;201.30;185.25;;;22.80;94.00;;;;;;4993582;28;20466;-74
2022/07/12 10:56:17;;;;;;;202.35;186.57;;;22.90;94.10;;;;;;4992239;28;20047;-74
2022/07/12 10:58:46;;;;;;;198.40;182.57;;;22.90;94.10;;;;;;4993636;28;20047;-74
2022/07/12 11:01:16;;;;;;;198.95;183.07;;;23.00;94.00;;;;;;4992986;28;21001;-75
2022/07/12 11:03:44;;;;;;;197.48;181.73;;;23.10;93.40;;;;;;4993931;28;20059;-75
2022/07/12 11:06:13;;;;;;;203.88;187.13;;;23.10;93.00;;;;;;4991371;28;20919;-75
2022/07/12 11:08:57;;;;;;;199.18;183.18;;;23.10;93.20;;;;;;4992796;28;20795;-74
2022/07/12 11:11:28;;;;;;;207.00;190.90;;;23.20;93.20;;;;;;5003042;28;20058;-73
2022/07/12 11:13:56;;;;;;;211.10;194.73;;;23.20;92.90;;;;;;4994280;28;20058;-73
2022/07/12 11:16:24;;;;;;;221.07;203.85;;;23.30;93.00;;;;;;4995546;28;20055;-74
2022/07/12 11:18:52;;;;;;;219.88;203.10;;;23.30;93.00;;;;;;5011060;28;20054;-74
2022/07/12 11:21:19;;;;;;;219.63;203.02;;;23.30;92.70;;;;;;5019291;28;20057;-73
2022/07/12 11:23:46;;;;;;;224.35;207.48;;;23.40;92.50;;;;;;4995903;28;20531;-73
2022/07/12 11:26:15;;;;;;;218.27;201.73;;;23.50;91.90;;;;;;4992144;28;20057;-73
2022/07/12 11:28:45;;;;;;;217.70;201.13;;;23.50;92.20;;;;;;4992018;28;20555;-73
2022/07/12 11:31:14;;;;;;;213.10;196.60;;;23.60;92.90;;;;;;4993044;28;20133;-73
2022/07/12 11:33:42;;;;;;;208.75;192.55;;;23.60;92.50;;;;;;5002208;28;20749;-73
2022/07/12 11:36:11;;;;;;;212.25;196.27;;;23.60;92.50;;;;;;5009426;28;20094;-73
2022/07/12 11:38:39;;;;;;;215.10;198.77;;;23.60;92.50;;;;;;5014016;28;20567;-73
2022/07/12 11:41:08;;;;;;;217.88;201.63;;;23.70;91.90;;;;;;5017542;28;20595;-73
2022/07/12 11:43:36;;;;;;;218.52;202.13;;;23.70;92.00;;;;;;5003403;28;20136;-73
2022/07/12 11:46:06;;;;;;;217.90;201.48;;;23.80;92.10;;;;;;5002203;28;20054;-75
2022/07/12 11:48:33;;;;;;;223.55;206.77;;;23.80;91.40;;;;;;4997389;28;20553;-74
2022/07/12 11:51:03;;;;;;;223.57;206.90;;;23.90;91.60;;;;;;5004203;28;20053;-75
2022/07/12 11:53:31;;;;;;;226.70;209.85;;;23.90;91.30;;;;;;5017096;28;20057;-75
2022/07/12 11:55:59;;;;;;;225.35;208.45;;;24.00;91.20;;;;;;4998744;28;20058;-74
2022/07/12 11:58:27;;;;;;;229.50;211.75;;;24.00;91.50;;;;;;5002349;28;20177;-74
2022/07/12 12:00:55;;;;;;;227.52;210.63;;;24.10;91.40;;;;;;5002179;28;20057;-73
2022/07/12 12:03:25;;;;;;;228.02;211.20;;;24.20;91.00;;;;;;4996721;28;20053;-74
2022/07/12 12:05:54;;;;;;;222.93;206.35;;;24.30;89.10;;;;;;4991286;28;20054;-74
2022/07/12 12:08:21;;;;;;;226.20;209.48;;;24.30;87.70;;;;;;4990326;28;20145;-74
2022/07/12 12:10:57;;;;;;;231.07;213.90;;;24.30;88.70;;;;;;5000687;28;20054;-74
2022/07/12 12:13:25;;;;;;;226.25;209.20;;;24.40;89.30;;;;;;5002051;28;20590;-74
2022/07/12 12:15:54;;;;;;;231.18;214.18;;;24.40;88.30;;;;;;5018524;28;20505;-75
2022/07/12 12:18:35;;;;;;;226.55;209.45;;;24.50;88.70;;;;;;5020677;28;20594;-75
2022/07/12 12:21:04;;;;;;;229.95;213.07;;;24.50;87.60;;;;;;5000772;28;20549;-74
2022/07/12 12:23:31;;;;;;;229.18;212.50;;;24.60;89.00;;;;;;5021085;28;20182;-74
2022/07/12 12:26:15;;;;;;;232.52;215.52;;;24.60;86.50;;;;;;5003694;28;20153;-74